Time;durP1;ratioP1;P1;durP2;ratioP2;P2;SDS_P1;SDS_P2;PMS_P1;PMS_P2;Temp;Humidity;BMP_temperature;BMP_pressure;BME280_temperature;BME280_humidity;BME280_pressure;Samples;Min_cycle;Max_cycle;Signal;HPM_P1;HPM_P2
2021/09/02 00:00:25;;;;;;;;;;;;;;;28.47;36.09;100687.44;5096916;28;859;-34
2021/09/02 00:02:50;;;;;;;;;;;;;;;28.58;35.92;100682.53;5097868;28;922;-30
2021/09/02 00:05:16;;;;;;;;;;;;;;;28.47;36.32;100686.59;5088506;28;990;-35
2021/09/02 00:07:41;;;;;;;;;;;;;;;28.51;36.47;100692.47;5077334;28;2314;-35
2021/09/02 00:10:06;;;;;;;;;;;;;;;28.34;36.85;100692.72;5077047;28;862;-36
2021/09/02 00:12:32;;;;;;;;;;;;;;;28.50;36.71;100682.66;5077856;28;728;-34
2021/09/02 00:14:57;;;;;;;;;;;;;;;28.51;36.78;100677.03;5077358;28;817;-35
2021/09/02 00:17:22;;;;;;;;;;;;;;;28.41;37.17;100682.78;5077151;28;874;-35
2021/09/02 00:19:47;;;;;;;;;;;;;;;28.44;37.28;100684.28;5082314;28;942;-30
2021/09/02 00:22:13;;;;;;;;;;;;;;;28.57;36.96;100687.13;5097570;28;759;-34
2021/09/02 00:24:38;;;;;;;;;;;;;;;28.52;37.23;100686.00;5097242;28;878;-34
2021/09/02 00:27:03;;;;;;;;;;;;;;;28.55;37.31;100688.31;5096996;28;1898;-35
2021/09/02 00:29:30;;;;;;;;;;;;;;;28.55;37.42;100680.22;5097503;28;752;-30
2021/09/02 00:31:55;;;;;;;;;;;;;;;28.40;37.54;100691.09;5097330;28;730;-35
2021/09/02 00:34:20;;;;;;;;;;;;;;;28.50;37.43;100688.91;5095664;28;934;-31
2021/09/02 00:36:45;;;;;;;;;;;;;;;28.48;37.58;100689.09;5077304;28;863;-36
2021/09/02 00:39:11;;;;;;;;;;;;;;;28.50;37.50;100686.22;5076831;28;921;-30
2021/09/02 00:41:36;;;;;;;;;;;;;;;28.46;37.40;100688.47;5076985;28;790;-35
2021/09/02 00:44:01;;;;;;;;;;;;;;;28.47;37.66;100686.59;5077183;28;822;-29
2021/09/02 00:46:27;;;;;;;;;;;;;;;28.48;37.60;100693.69;5076525;28;807;-35
2021/09/02 00:48:52;;;;;;;;;;;;;;;28.59;37.50;100690.44;5076291;28;1918;-33
2021/09/02 00:51:17;;;;;;;;;;;;;;;28.54;37.82;100692.06;5093876;28;970;-35
2021/09/02 00:53:43;;;;;;;;;;;;;;;28.46;38.00;100698.47;5090470;28;1075;-33
2021/09/02 00:56:09;;;;;;;;;;;;;;;28.55;37.75;100704.56;5076852;28;759;-36
2021/09/02 00:58:34;;;;;;;;;;;;;;;28.52;38.00;100704.94;5077232;28;879;-35
2021/09/02 01:00:59;;;;;;;;;;;;;;;28.45;38.04;100704.88;5075850;28;886;-36
2021/09/02 01:03:25;;;;;;;;;;;;;;;28.45;37.99;100691.34;5076445;28;847;-36
2021/09/02 01:05:53;;;;;;;;;;;;;;;28.48;37.77;100691.81;5089971;28;998;-31
2021/09/02 01:08:18;;;;;;;;;;;;;;;28.58;37.77;100701.47;5096076;28;1918;-36
2021/09/02 01:10:44;;;;;;;;;;;;;;;28.53;38.11;100696.63;5096858;28;748;-36
2021/09/02 01:13:10;;;;;;;;;;;;;;;28.46;38.00;100699.28;5094946;28;545;-35
2021/09/02 01:15:35;;;;;;;;;;;;;;;28.42;38.45;100698.00;5096190;28;850;-35
2021/09/02 01:18:00;;;;;;;;;;;;;;;28.44;38.47;100700.53;5096831;28;799;-34
2021/09/02 01:20:26;;;;;;;;;;;;;;;28.58;37.81;100715.00;5086316;28;946;-35
2021/09/02 01:22:53;;;;;;;;;;;;;;;28.49;38.32;100711.59;5075982;28;767;-35
2021/09/02 01:25:19;;;;;;;;;;;;;;;28.42;38.53;100706.13;5076204;28;783;-28
2021/09/02 01:27:45;;;;;;;;;;;;;;;28.52;38.41;100708.50;5076336;28;1976;-35
2021/09/02 01:30:11;;;;;;;;;;;;;;;28.50;38.37;100709.72;5075963;28;747;-35
2021/09/02 01:32:37;;;;;;;;;;;;;;;28.52;38.37;100713.06;5076756;28;808;-35
2021/09/02 01:35:03;;;;;;;;;;;;;;;28.44;38.51;100719.47;5083175;28;931;-35
2021/09/02 01:37:48;;;;;;;;;;;;;;;28.43;38.65;100721.31;5095807;28;724;-35
2021/09/02 01:40:15;;;;;;;;;;;;;;;28.42;39.17;100719.66;5096955;28;803;-35
2021/09/02 01:42:40;;;;;;;;;;;;;;;28.53;38.71;100722.88;5096543;28;787;-35
2021/09/02 01:45:05;;;;;;;;;;;;;;;28.43;38.82;100715.91;5096002;28;966;-35
2021/09/02 01:47:31;;;;;;;;;;;;;;;28.50;38.92;100715.97;5096089;28;1910;-35
2021/09/02 01:50:02;;;;;;;;;;;;;;;28.41;38.99;100711.72;5089886;28;1125;-35
2021/09/02 01:52:28;;;;;;;;;;;;;;;28.46;39.03;100725.53;5075575;28;845;-35
2021/09/02 01:54:53;;;;;;;;;;;;;;;28.38;39.24;100718.34;5092129;28;1319;-35
2021/09/02 01:57:18;;;;;;;;;;;;;;;28.33;38.98;100718.09;5096057;28;866;-34
2021/09/02 01:59:44;;;;;;;;;;;;;;;28.40;38.99;100716.28;5095936;28;874;-35
2021/09/02 02:02:09;;;;;;;;;;;;;;;28.55;38.67;100709.97;5096614;28;795;-35
2021/09/02 02:04:34;;;;;;;;;;;;;;;28.51;38.67;100706.81;5092845;28;958;-35
2021/09/02 02:07:00;;;;;;;;;;;;;;;28.44;38.59;100716.75;5075520;28;1963;-33
2021/09/02 02:09:25;;;;;;;;;;;;;;;28.47;39.11;100719.91;5075671;28;1026;-35
2021/09/02 02:11:50;;;;;;;;;;;;;;;28.46;38.55;100715.50;5076059;28;881;-32
2021/09/02 02:14:16;;;;;;;;;;;;;;;28.55;38.58;100718.09;5075749;28;815;-34
2021/09/02 02:16:41;;;;;;;;;;;;;;;28.52;38.93;100727.44;5075231;28;837;-31
2021/09/02 02:19:06;;;;;;;;;;;;;;;28.45;38.69;100723.84;5075854;28;802;-35
2021/09/02 02:21:32;;;;;;;;;;;;;;;28.53;38.70;100725.59;5095052;28;959;-30
2021/09/02 02:23:57;;;;;;;;;;;;;;;28.45;39.20;100723.84;5097082;28;735;-35
2021/09/02 02:26:22;;;;;;;;;;;;;;;28.44;39.16;100717.59;5100153;28;767;-36
2021/09/02 02:28:47;;;;;;;;;;;;;;;28.47;39.09;100724.47;5100021;28;1897;-36
2021/09/02 02:31:13;;;;;;;;;;;;;;;28.49;39.20;100722.44;5099391;28;886;-36
2021/09/02 02:33:38;;;;;;;;;;;;;;;28.48;39.13;100728.84;5099473;28;767;-36
2021/09/02 02:36:03;;;;;;;;;;;;;;;28.44;39.52;100733.00;5083980;28;942;-36
2021/09/02 02:38:29;;;;;;;;;;;;;;;28.39;39.25;100733.56;5078589;28;851;-36
2021/09/02 02:40:54;;;;;;;;;;;;;;;28.50;39.36;100736.78;5079392;28;738;-31
2021/09/02 02:43:20;;;;;;;;;;;;;;;28.62;39.11;100743.38;5079195;28;886;-37
2021/09/02 02:45:47;;;;;;;;;;;;;;;28.47;39.20;100743.41;5078463;28;874;-35
2021/09/02 02:48:12;;;;;;;;;;;;;;;28.56;39.42;100744.16;5078860;28;1970;-35
2021/09/02 02:50:37;;;;;;;;;;;;;;;28.46;39.45;100748.00;5090951;28;1017;-36
2021/09/02 02:53:03;;;;;;;;;;;;;;;28.42;39.82;100748.56;5098214;28;1110;-35
2021/09/02 02:55:28;;;;;;;;;;;;;;;28.51;39.68;100747.41;5078856;28;862;-36
2021/09/02 02:57:54;;;;;;;;;;;;;;;28.51;39.38;100754.69;5079345;28;847;-35
2021/09/02 03:00:19;;;;;;;;;;;;;;;28.48;39.55;100756.75;5078484;28;783;-29
2021/09/02 03:02:44;;;;;;;;;;;;;;;28.49;39.60;100746.78;5079505;28;799;-35
2021/09/02 03:05:09;;;;;;;;;;;;;;;28.52;39.43;100761.78;5086632;28;963;-35
2021/09/02 03:07:35;;;;;;;;;;;;;;;28.50;39.61;100756.56;5097253;28;1913;-35
2021/09/02 03:10:01;;;;;;;;;;;;;;;28.40;40.00;100759.59;5099242;28;811;-29
2021/09/02 03:12:27;;;;;;;;;;;;;;;28.32;40.29;100757.81;5098955;28;1450;-36
2021/09/02 03:14:52;;;;;;;;;;;;;;;28.21;40.44;100766.44;5098759;28;978;-35
2021/09/02 03:17:18;;;;;;;;;;;;;;;28.27;40.71;100770.22;5099021;28;807;-36
2021/09/02 03:19:43;;;;;;;;;;;;;;;28.40;40.50;100775.81;5094229;28;938;-28
2021/09/02 03:22:08;;;;;;;;;;;;;;;28.43;39.62;100774.59;5078261;28;1082;-27
2021/09/02 03:24:33;;;;;;;;;;;;;;;28.34;40.14;100773.88;5078697;28;823;-36
2021/09/02 03:26:59;;;;;;;;;;;;;;;28.32;40.29;100776.75;5078800;28;1972;-29
2021/09/02 03:29:24;;;;;;;;;;;;;;;28.29;40.25;100779.00;5077877;28;879;-27
2021/09/02 03:31:50;;;;;;;;;;;;;;;28.38;39.25;100768.94;5078595;28;819;-31
2021/09/02 03:34:15;;;;;;;;;;;;;;;28.40;39.91;100785.78;5078067;28;1006;-27
2021/09/02 03:36:41;;;;;;;;;;;;;;;28.36;40.27;100785.34;5098203;28;787;-27
2021/09/02 03:39:06;;;;;;;;;;;;;;;28.36;39.62;100780.78;5098551;28;778;-27
2021/09/02 03:41:31;;;;;;;;;;;;;;;28.31;38.49;100777.75;5098360;28;752;-24
2021/09/02 03:43:57;;;;;;;;;;;;;;;27.31;33.82;100775.38;5097850;28;830;-23
2021/09/02 03:46:22;;;;;;;;;;;;;;;27.05;33.61;100776.59;5098544;28;783;-24
2021/09/02 03:48:47;;;;;;;;;;;;;;;27.02;33.25;100783.22;5096977;28;2035;-22
2021/09/02 03:51:13;;;;;;;;;;;;;;;26.66;33.29;100776.53;5080977;28;957;-25
2021/09/02 03:53:38;;;;;;;;;;;;;;;22.19;39.53;100774.88;5083623;28;1083;-39
2021/09/02 03:56:03;;;;;;;;;;;;;;;21.20;41.94;100773.31;5097803;28;791;-39
2021/09/02 03:58:32;;;;;;;;;;;;;;;20.06;44.84;100762.88;5092135;28;1348;-38
2021/09/02 04:00:57;;;;;;;;;;;;;;;19.79;45.89;100766.94;5097034;28;822;-24
2021/09/02 04:03:22;;;;;;;;;;;;;;;19.83;46.12;100771.03;5098512;28;755;-24
2021/09/02 04:05:48;;;;;;;;;;;;;;;19.69;46.13;100772.22;5083620;28;1460;-38
2021/09/02 04:08:13;;;;;;;;;;;;;;;19.73;45.92;100770.16;5077784;28;1917;-38
2021/09/02 04:10:38;;;;;;;;;;;;;;;19.69;46.22;100766.03;5077290;28;854;-37
2021/09/02 04:13:04;;;;;;;;;;;;;;;19.64;46.33;100768.25;5077249;28;791;-30
2021/09/02 04:15:29;;;;;;;;;;;;;;;19.43;47.33;100766.47;5077520;28;787;-24
2021/09/02 04:17:54;;;;;;;;;;;;;;;21.59;41.72;100764.34;5077650;28;783;-26
2021/09/02 04:20:19;;;;;;;;;;;;;;;19.63;46.86;100761.25;5086481;28;994;-38
2021/09/02 04:22:45;;;;;;;;;;;;;;;19.35;47.55;100753.78;5097810;28;800;-32
2021/09/02 04:25:10;;;;;;;;;;;;;;;19.45;47.28;100761.84;5097410;28;882;-39
2021/09/02 04:27:35;;;;;;;;;;;;;;;19.47;46.90;100746.53;5097400;28;1972;-37
2021/09/02 04:30:01;;;;;;;;;;;;;;;19.96;45.68;100753.94;5097798;28;780;-32
2021/09/02 04:32:26;;;;;;;;;;;;;;;20.20;45.12;100752.81;5097729;28;760;-37
2021/09/02 04:34:54;;;;;;;;;;;;;;;21.47;42.45;100760.19;5091863;28;945;-33
2021/09/02 04:37:20;;;;;;;;;;;;;;;22.35;40.38;100759.00;5076710;28;824;-29
2021/09/02 04:39:45;;;;;;;;;;;;;;;22.08;40.93;100752.66;5077098;28;739;-30
2021/09/02 04:42:10;;;;;;;;;;;;;;;23.27;38.88;100762.53;5076970;28;806;-29
2021/09/02 04:44:35;;;;;;;;;;;;;;;24.01;37.33;100758.59;5076183;28;859;-34
2021/09/02 04:47:01;;;;;;;;;;;;;;;24.30;36.59;100767.31;5076589;28;1975;-31
2021/09/02 04:49:26;;;;;;;;;;;;;;;24.36;36.13;100781.94;5078516;28;1063;-31
2021/09/02 04:51:51;;;;;;;;;;;;;;;24.16;36.71;100777.66;5096663;28;870;-34
2021/09/02 04:54:17;;;;;;;;;;;;;;;23.94;36.86;100787.97;5086168;28;1091;-40
2021/09/02 04:56:42;;;;;;;;;;;;;;;23.99;36.93;100783.97;5076854;28;719;-32
2021/09/02 04:59:07;;;;;;;;;;;;;;;24.24;36.48;100789.47;5076703;28;839;-32
2021/09/02 05:01:32;;;;;;;;;;;;;;;24.14;36.72;100797.63;5076834;28;751;-33
2021/09/02 05:03:58;;;;;;;;;;;;;;;24.21;36.55;100794.16;5076412;28;822;-30
2021/09/02 05:06:23;;;;;;;;;;;;;;;23.79;37.31;100794.94;5094704;28;990;-39
2021/09/02 05:08:48;;;;;;;;;;;;;;;24.20;37.01;100802.38;5096979;28;1909;-33
2021/09/02 05:11:14;;;;;;;;;;;;;;;24.36;36.54;100808.84;5096895;28;818;-38
2021/09/02 05:13:42;;;;;;;;;;;;;;;24.41;36.52;100815.38;5095410;28;835;-39
2021/09/02 05:16:07;;;;;;;;;;;;;;;24.64;35.88;100819.34;5097043;28;714;-31
2021/09/02 05:18:32;;;;;;;;;;;;;;;24.68;36.05;100823.34;5096812;28;831;-37
2021/09/02 05:20:58;;;;;;;;;;;;;;;24.42;36.30;100837.75;5081580;28;938;-37
2021/09/02 05:23:23;;;;;;;;;;;;;;;24.74;36.00;100833.44;5076592;28;755;-32
2021/09/02 05:25:51;;;;;;;;;;;;;;;24.71;36.11;100823.03;5076076;28;647;-33
2021/09/02 05:28:16;;;;;;;;;;;;;;;24.80;35.89;100831.97;5075847;28;1906;-32
2021/09/02 05:30:42;;;;;;;;;;;;;;;24.79;35.85;100839.19;5076139;28;826;-37
2021/09/02 05:33:07;;;;;;;;;;;;;;;24.88;35.90;100839.19;5076456;28;731;-37
2021/09/02 05:35:32;;;;;;;;;;;;;;;24.95;35.68;100840.25;5086782;28;950;-39
2021/09/02 05:37:58;;;;;;;;;;;;;;;25.03;35.48;100842.13;5096584;28;811;-30
2021/09/02 05:40:23;;;;;;;;;;;;;;;25.13;35.30;100845.50;5096430;28;775;-33
2021/09/02 05:42:48;;;;;;;;;;;;;;;25.01;35.56;100850.34;5096082;28;756;-31
2021/09/02 05:45:14;;;;;;;;;;;;;;;24.88;35.92;100845.44;5096704;28;811;-38
2021/09/02 05:47:39;;;;;;;;;;;;;;;25.01;36.08;100853.03;5096534;28;1898;-31
2021/09/02 05:50:04;;;;;;;;;;;;;;;25.11;35.87;100846.69;5088550;28;1238;-30
2021/09/02 05:52:30;;;;;;;;;;;;;;;25.26;35.83;100846.81;5076322;28;762;-39
2021/09/02 05:54:56;;;;;;;;;;;;;;;25.51;35.40;100853.06;5092261;28;1269;-32
2021/09/02 05:57:22;;;;;;;;;;;;;;;25.49;35.22;100855.06;5096069;28;774;-37
2021/09/02 05:59:47;;;;;;;;;;;;;;;25.36;35.33;100847.50;5080218;28;1099;-36
2021/09/02 06:02:12;;;;;;;;;;;;;;;25.72;35.42;100848.19;5079587;28;830;-36
2021/09/02 06:04:37;;;;;;;;;;;;;;;26.18;34.75;100847.56;5083250;28;998;-24
2021/09/02 06:07:03;;;;;;;;;;;;;;;26.37;34.27;100842.78;5100209;28;1906;-36
2021/09/02 06:09:28;;;;;;;;;;;;;;;26.49;33.71;100845.94;5099886;28;831;-25
2021/09/02 06:11:53;;;;;;;;;;;;;;;26.57;33.51;100847.75;5099410;28;864;-34
2021/09/02 06:14:19;;;;;;;;;;;;;;;26.64;33.60;100849.56;5100215;28;759;-33
2021/09/02 06:16:44;;;;;;;;;;;;;;;26.82;33.56;100845.75;5100731;28;819;-31
2021/09/02 06:19:09;;;;;;;;;;;;;;;26.75;33.36;100848.31;5097357;28;1268;-34
2021/09/02 06:21:34;;;;;;;;;;;;;;;26.88;32.84;100847.72;5087456;28;1007;-26
2021/09/02 06:24:00;;;;;;;;;;;;;;;26.96;33.04;100849.53;5090420;28;1279;-35
2021/09/02 06:26:25;;;;;;;;;;;;;;;27.18;32.78;100844.34;5091653;28;1228;-34
2021/09/02 06:28:50;;;;;;;;;;;;;;;27.20;33.01;100844.16;5100000;28;1902;-32
2021/09/02 06:31:16;;;;;;;;;;;;;;;27.23;32.70;100850.03;5099623;28;870;-26
2021/09/02 06:33:41;;;;;;;;;;;;;;;27.26;32.83;100846.13;5098782;28;854;-33
2021/09/02 06:36:06;;;;;;;;;;;;;;;27.34;32.61;100853.34;5083654;28;993;-27
2021/09/02 06:38:32;;;;;;;;;;;;;;;27.34;32.55;100854.16;5079824;28;820;-36
2021/09/02 06:40:57;;;;;;;;;;;;;;;27.45;32.71;100850.19;5078785;28;762;-35
2021/09/02 06:43:22;;;;;;;;;;;;;;;27.47;32.54;100845.44;5079453;28;831;-29
2021/09/02 06:45:48;;;;;;;;;;;;;;;27.51;32.33;100846.75;5078810;28;1036;-35
2021/09/02 06:48:13;;;;;;;;;;;;;;;27.48;32.15;100846.28;5078631;28;1970;-25
2021/09/02 06:50:38;;;;;;;;;;;;;;;27.56;31.64;100848.88;5090999;28;919;-28
2021/09/02 06:53:03;;;;;;;;;;;;;;;27.66;32.08;100848.63;5099053;28;1118;-27
2021/09/02 06:55:29;;;;;;;;;;;;;;;27.66;31.72;100843.22;5078962;28;811;-30
2021/09/02 06:57:54;;;;;;;;;;;;;;;27.75;32.37;100846.72;5078975;28;778;-26
2021/09/02 07:00:19;;;;;;;;;;;;;;;27.76;32.16;100842.97;5078944;28;755;-36
2021/09/02 07:02:45;;;;;;;;;;;;;;;27.71;32.36;100840.84;5078793;28;846;-30
2021/09/02 07:05:10;;;;;;;;;;;;;;;27.79;32.32;100845.34;5085587;28;1341;-36
2021/09/02 07:07:35;;;;;;;;;;;;;;;27.94;32.15;100852.59;5078552;28;1977;-27
2021/09/02 07:10:01;;;;;;;;;;;;;;;27.91;31.57;100851.09;5078223;28;866;-34
2021/09/02 07:12:26;;;;;;;;;;;;;;;27.93;32.05;100843.66;5077964;28;818;-26
2021/09/02 07:14:52;;;;;;;;;;;;;;;28.06;32.46;100844.88;5086095;28;763;-30
2021/09/02 07:17:17;;;;;;;;;;;;;;;28.02;32.00;100846.25;5099243;28;871;-27
2021/09/02 07:19:42;;;;;;;;;;;;;;;28.02;31.88;100847.09;5088081;28;847;-32
2021/09/02 07:22:07;;;;;;;;;;;;;;;28.06;31.41;100853.00;5078202;28;822;-34
2021/09/02 07:24:33;;;;;;;;;;;;;;;28.05;31.43;100852.13;5078107;28;772;-34
2021/09/02 07:26:58;;;;;;;;;;;;;;;28.18;32.00;100851.47;5077867;28;930;-28
2021/09/02 07:29:23;;;;;;;;;;;;;;;28.36;30.67;100850.28;5078417;28;1955;-35
2021/09/02 07:31:49;;;;;;;;;;;;;;;28.36;31.19;100855.69;5078480;28;767;-36
2021/09/02 07:34:14;;;;;;;;;;;;;;;28.26;32.01;100852.41;5078403;28;1014;-30
2021/09/02 07:36:39;;;;;;;;;;;;;;;28.40;31.35;100854.28;5098619;28;879;-26
2021/09/02 07:39:05;;;;;;;;;;;;;;;28.53;31.12;100850.06;5097868;28;791;-30
2021/09/02 07:41:30;;;;;;;;;;;;;;;28.47;31.29;100852.50;5096485;28;788;-26
2021/09/02 07:43:55;;;;;;;;;;;;;;;28.51;30.97;100865.66;5098271;28;859;-26
2021/09/02 07:46:21;;;;;;;;;;;;;;;28.76;30.61;100858.00;5098293;28;738;-30
2021/09/02 07:48:46;;;;;;;;;;;;;;;24.94;36.74;100846.66;5097687;28;1922;-34
2021/09/02 07:51:15;;;;;;;;;;;;;;;20.72;42.59;100841.81;5097067;28;887;-33
2021/09/02 07:53:40;;;;;;;;;;;;;;;19.35;43.12;100836.47;5090813;28;861;-32
2021/09/02 07:56:05;;;;;;;;;;;;;;;18.70;46.72;100835.44;5077591;28;862;-26
2021/09/02 07:58:31;;;;;;;;;;;;;;;19.64;46.63;100827.81;5077146;28;1146;-29
2021/09/02 08:00:56;;;;;;;;;;;;;;;19.24;48.39;100834.69;5077839;28;800;-31
2021/09/02 08:03:21;;;;;;;;;;;;;;;18.97;49.38;100833.28;5075415;28;1063;-32
2021/09/02 08:05:46;;;;;;;;;;;;;;;20.79;43.18;100826.88;5090964;28;959;-26
2021/09/02 08:08:16;;;;;;;;;;;;;;;21.45;42.23;100837.09;5097959;28;1977;-25
2021/09/02 08:10:41;;;;;;;;;;;;;;;22.65;40.48;100836.59;5097362;28;807;-30
2021/09/02 08:13:07;;;;;;;;;;;;;;;22.14;41.21;100826.22;5097778;28;1048;-36
2021/09/02 08:15:32;;;;;;;;;;;;;;;22.19;41.53;100834.66;5097849;28;835;-36
2021/09/02 08:17:59;;;;;;;;;;;;;;;22.10;42.28;100833.72;5097190;28;816;-35
2021/09/02 08:20:25;;;;;;;;;;;;;;;22.08;42.54;100833.03;5087363;28;945;-35
2021/09/02 08:22:50;;;;;;;;;;;;;;;22.13;42.67;100830.75;5076335;28;817;-30
2021/09/02 08:25:15;;;;;;;;;;;;;;;22.14;42.86;100823.53;5076717;28;922;-36
2021/09/02 08:27:41;;;;;;;;;;;;;;;22.17;42.47;100825.09;5077658;28;1906;-36
2021/09/02 08:30:06;;;;;;;;;;;;;;;21.99;42.91;100826.69;5076941;28;746;-35
2021/09/02 08:32:32;;;;;;;;;;;;;;;22.05;42.88;100827.97;5076806;28;775;-33
2021/09/02 08:34:57;;;;;;;;;;;;;;;21.97;43.27;100826.00;5078145;28;946;-35
2021/09/02 08:37:22;;;;;;;;;;;;;;;22.04;42.92;100822.75;5070553;28;1156;-35
2021/09/02 08:39:48;;;;;;;;;;;;;;;22.27;42.17;100821.38;5077099;28;756;-36
2021/09/02 08:42:13;;;;;;;;;;;;;;;22.04;43.05;100820.06;5085198;28;1084;-36
2021/09/02 08:44:39;;;;;;;;;;;;;;;21.91;43.70;100821.22;5075106;28;1022;-38
2021/09/02 08:47:04;;;;;;;;;;;;;;;21.86;43.69;100819.00;5074757;28;859;-35
2021/09/02 08:49:30;;;;;;;;;;;;;;;21.81;43.60;100813.22;5077015;28;1976;-35
2021/09/02 08:51:55;;;;;;;;;;;;;;;21.88;43.59;100817.03;5096743;28;846;-37
2021/09/02 08:54:20;;;;;;;;;;;;;;;21.91;43.21;100823.91;5097023;28;846;-34
2021/09/02 08:56:46;;;;;;;;;;;;;;;21.67;44.06;100809.13;5096991;28;850;-30
2021/09/02 08:59:11;;;;;;;;;;;;;;;21.98;43.69;100814.31;5087797;28;914;-43
2021/09/02 09:01:36;;;;;;;;;;;;;;;22.06;44.09;100820.75;5077677;28;1123;-41
2021/09/02 09:04:11;;;;;;;;;;;;;;;22.01;44.20;100816.69;5097054;28;786;-41
2021/09/02 09:06:36;;;;;;;;;;;;;;;22.05;43.66;100816.41;5096685;28;826;-41
2021/09/02 09:09:03;;;;;;;;;;;;;;;22.10;43.77;100816.81;5097127;28;1914;-43
2021/09/02 09:11:29;;;;;;;;;;;;;;;22.09;43.52;100815.09;5095245;28;1257;-43
2021/09/02 09:14:19;;;;;;;;;;;;;;;22.11;43.57;100813.97;5089776;28;978;-38
2021/09/02 09:16:50;;;;;;;;;;;;;;;22.13;43.41;100814.69;5068401;28;1332;-42
2021/09/02 09:19:35;;;;;;;;;;;;;;;22.15;43.67;100819.88;5076588;28;844;-42
2021/09/02 09:22:00;;;;;;;;;;;;;;;22.19;43.40;100821.25;5076326;28;813;-40
2021/09/02 09:24:41;;;;;;;;;;;;;;;22.28;43.06;100814.19;5076309;28;795;-40
2021/09/02 09:27:07;;;;;;;;;;;;;;;22.32;42.66;100809.38;5076219;28;782;-45
2021/09/02 09:29:33;;;;;;;;;;;;;;;22.33;42.93;100805.69;5085661;28;2304;-40
2021/09/02 09:31:58;;;;;;;;;;;;;;;22.23;43.46;100800.38;5096698;28;826;-39
2021/09/02 09:34:24;;;;;;;;;;;;;;;22.02;44.11;100802.28;5095216;28;779;-34
2021/09/02 09:36:49;;;;;;;;;;;;;;;22.21;43.97;100800.53;5094712;28;1483;-35
2021/09/02 09:39:16;;;;;;;;;;;;;;;21.96;44.40;100808.25;5086406;28;1173;-37
2021/09/02 09:41:45;;;;;;;;;;;;;;;21.90;44.80;100809.66;5076107;28;803;-43
2021/09/02 09:44:28;;;;;;;;;;;;;;;21.79;44.76;100809.84;5083687;28;987;-38
2021/09/02 09:47:07;;;;;;;;;;;;;;;21.70;45.03;100803.53;5096550;28;805;-41
2021/09/02 09:49:41;;;;;;;;;;;;;;;21.72;45.45;100806.88;5081778;28;1901;-43
2021/09/02 09:52:17;;;;;;;;;;;;;;;21.83;45.39;100807.72;5079122;28;823;-41
2021/09/02 09:54:42;;;;;;;;;;;;;;;21.87;45.25;100807.28;5087693;28;719;-37
2021/09/02 09:57:07;;;;;;;;;;;;;;;21.76;45.75;100807.44;5096393;28;747;-42
2021/09/02 09:59:32;;;;;;;;;;;;;;;21.71;45.79;100805.19;5083409;28;982;-45
2021/09/02 10:01:58;;;;;;;;;;;;;;;21.83;45.46;100811.25;5076064;28;807;-37
2021/09/02 10:04:23;;;;;;;;;;;;;;;21.86;46.03;100808.28;5075972;28;772;-43
2021/09/02 10:06:48;;;;;;;;;;;;;;;22.01;45.28;100811.34;5073894;28;971;-42
2021/09/02 10:09:14;;;;;;;;;;;;;;;21.94;45.10;100807.53;5075733;28;1914;-39
2021/09/02 10:11:39;;;;;;;;;;;;;;;21.90;45.22;100806.97;5075975;28;803;-42
2021/09/02 10:14:04;;;;;;;;;;;;;;;22.13;45.41;100814.69;5080914;28;1010;-38
2021/09/02 10:16:30;;;;;;;;;;;;;;;22.02;46.09;100814.88;5094410;28;839;-42
2021/09/02 10:18:55;;;;;;;;;;;;;;;21.94;46.11;100820.13;5096058;28;731;-39
2021/09/02 10:21:20;;;;;;;;;;;;;;;21.84;45.85;100817.44;5094505;28;754;-39
2021/09/02 10:23:47;;;;;;;;;;;;;;;21.89;45.65;100810.66;5095513;28;823;-43
2021/09/02 10:26:34;;;;;;;;;;;;;;;21.92;45.40;100811.38;5096358;28;783;-42
2021/09/02 10:29:00;;;;;;;;;;;;;;;21.90;45.33;100820.38;5088548;28;1906;-43
2021/09/02 10:31:25;;;;;;;;;;;;;;;22.07;45.74;100814.41;5075773;28;1021;-40
2021/09/02 10:33:50;;;;;;;;;;;;;;;22.03;45.80;100819.22;5075683;28;819;-40
2021/09/02 10:36:16;;;;;;;;;;;;;;;21.82;45.98;100819.44;5075230;28;817;-43
2021/09/02 10:38:41;;;;;;;;;;;;;;;21.60;46.26;100818.75;5081137;28;1213;-43
2021/09/02 10:41:06;;;;;;;;;;;;;;;21.60;46.49;100819.59;5096035;28;932;-43
2021/09/02 10:43:44;;;;;;;;;;;;;;;21.80;46.36;100830.28;5092489;28;953;-39
2021/09/02 10:46:22;;;;;;;;;;;;;;;21.64;46.90;100823.66;5078990;28;819;-39
2021/09/02 10:48:47;;;;;;;;;;;;;;;21.84;46.70;100825.47;5079113;28;1910;-35
2021/09/02 10:51:31;;;;;;;;;;;;;;;21.93;46.59;100821.94;5078830;28;843;-40
2021/09/02 10:53:59;;;;;;;;;;;;;;;21.99;46.77;100823.16;5078985;28;771;-40
2021/09/02 10:56:30;;;;;;;;;;;;;;;21.95;47.14;100817.28;5077310;28;1293;-39
2021/09/02 10:58:55;;;;;;;;;;;;;;;21.93;47.59;100821.09;5084657;28;950;-38
2021/09/02 11:01:23;;;;;;;;;;;;;;;23.69;44.57;100811.16;5099515;28;743;-41
2021/09/02 11:03:51;;;;;;;;;;;;;;;22.95;45.81;100823.81;5099352;28;771;-36
2021/09/02 11:06:17;;;;;;;;;;;;;;;22.21;47.24;100829.16;5099111;28;1918;-36
2021/09/02 11:08:42;;;;;;;;;;;;;;;21.91;47.78;100821.22;5098804;28;1905;-36
2021/09/02 11:11:20;;;;;;;;;;;;;;;21.91;47.92;100818.56;5099246;28;747;-38
2021/09/02 11:13:46;;;;;;;;;;;;;;;22.12;47.81;100822.88;5094329;28;950;-36
2021/09/02 11:16:13;;;;;;;;;;;;;;;22.35;47.07;100822.47;5078847;28;792;-41
2021/09/02 11:18:42;;;;;;;;;;;;;;;22.49;47.20;100830.00;5079117;28;827;-40
2021/09/02 11:21:13;;;;;;;;;;;;;;;23.12;48.40;100830.16;5078384;28;787;-40
2021/09/02 11:23:40;;;;;;;;;;;;;;;24.46;43.37;100831.88;5078243;28;990;-40
2021/09/02 11:26:06;;;;;;;;;;;;;;;22.89;46.24;100832.47;5077665;28;788;-37
2021/09/02 11:28:31;;;;;;;;;;;;;;;21.98;46.67;100850.97;5080540;28;1909;-36
2021/09/02 11:30:57;;;;;;;;;;;;;;;21.62;45.53;100846.22;5097219;28;1237;-39
2021/09/02 11:33:22;;;;;;;;;;;;;;;21.53;44.31;100845.25;5098665;28;790;-36
2021/09/02 11:35:54;;;;;;;;;;;;;;;21.63;45.04;100843.41;5098149;28;876;-37
2021/09/02 11:38:19;;;;;;;;;;;;;;;23.83;41.68;100850.88;5095963;28;1122;-38
2021/09/02 11:40:45;;;;;;;;;;;;;;;22.61;43.62;100849.44;5078945;28;779;-38
2021/09/02 11:43:17;;;;;;;;;;;;;;;22.02;45.53;100842.47;5077919;28;831;-36
2021/09/02 11:45:42;;;;;;;;;;;;;;;21.92;45.59;100843.50;5078536;28;834;-38
2021/09/02 11:48:08;;;;;;;;;;;;;;;21.81;45.99;100834.66;5076478;28;1957;-38
2021/09/02 11:50:33;;;;;;;;;;;;;;;21.78;46.47;100840.31;5077490;28;1554;-35
2021/09/02 11:52:59;;;;;;;;;;;;;;;23.73;44.16;100842.06;5078417;28;803;-35
2021/09/02 11:55:24;;;;;;;;;;;;;;;24.66;42.53;100836.13;5077659;28;1086;-39
2021/09/02 11:57:50;;;;;;;;;;;;;;;25.22;40.80;100845.50;5076718;28;790;-36
2021/09/02 12:00:15;;;;;;;;;;;;;;;25.54;40.22;100852.72;5094744;28;1090;-39
2021/09/02 12:02:45;;;;;;;;;;;;;;;25.74;39.61;100851.56;5098073;28;959;-36
2021/09/02 12:05:10;;;;;;;;;;;;;;;26.00;39.61;100851.31;5097636;28;751;-37
2021/09/02 12:07:36;;;;;;;;;;;;;;;26.24;39.39;100854.13;5098073;28;1976;-36
2021/09/02 12:10:01;;;;;;;;;;;;;;;26.35;38.82;100858.31;5091587;28;1498;-36
2021/09/02 12:12:29;;;;;;;;;;;;;;;26.59;39.31;100859.22;5078636;28;1366;-36
2021/09/02 12:14:55;;;;;;;;;;;;;;;23.80;42.94;100853.03;5091865;28;943;-39
2021/09/02 12:17:20;;;;;;;;;;;;;;;22.95;44.17;100850.66;5097938;28;735;-37
2021/09/02 12:19:52;;;;;;;;;;;;;;;22.90;44.67;100841.34;5095813;28;1195;-36
2021/09/02 12:22:18;;;;;;;;;;;;;;;22.72;44.93;100840.34;5097765;28;815;-37
2021/09/02 12:24:43;;;;;;;;;;;;;;;22.63;45.19;100844.78;5097544;28;849;-41
2021/09/02 12:27:08;;;;;;;;;;;;;;;22.61;45.03;100843.22;5097739;28;862;-41
2021/09/02 12:29:44;;;;;;;;;;;;;;;22.49;45.40;100842.56;5085959;28;1898;-43
2021/09/02 12:32:09;;;;;;;;;;;;;;;22.47;45.51;100849.91;5077441;28;786;-37
2021/09/02 12:34:35;;;;;;;;;;;;;;;24.06;44.04;100854.84;5075358;28;1237;-35
2021/09/02 12:37:05;;;;;;;;;;;;;;;25.41;40.76;100858.63;5077531;28;735;-39
2021/09/02 12:39:33;;;;;;;;;;;;;;;25.99;39.65;100854.19;5088889;28;1025;-36
2021/09/02 12:41:59;;;;;;;;;;;;;;;26.35;38.88;100858.31;5097248;28;818;-39
2021/09/02 12:44:25;;;;;;;;;;;;;;;26.56;38.64;100855.00;5086800;28;978;-40
2021/09/02 12:47:01;;;;;;;;;;;;;;;26.79;38.34;100859.59;5087744;28;1356;-38